Scroll down
FLIGHT INFORMATION
American Airlines

AAL575

At Arrival Gate

KPHX
 KORD
DATE: 2021-03-07
GATE: B25
GATE DEPARTURE: 22:16
TAKEOFF: 22:30
DATE: 2021-03-08
GATE: L4
LANDING: 01:17
GATE ARRIVAL: 01:30
FLIGHT DATA
Crew: 
Speed: 
492 kts
Altitude: 
39,014 ft
Stage Length: 
1,249.1 nm
Block Time: 
3.2 hrs
Flight Time: 
2.8 hrs
Fuel Used: 
40,748 lb
Cleared Route: KPHX SPRKY FORPE LALUZ SJN ABQ FTI KENTO DRAWL GCK SLN AGENT KIDER IRK LOAMY KEOKK DRAMS RYELY BFORD BYLAW BENKY NEWRK AHSTN PETAH JORJO MONKZ TONIE RRUDA RW10C
TRACK DATA
50,000 ft 1,000 kts
AIRCRAFT INFO AND CUMULATIVE STATS
Aircraft Type: 
B772
Registration: 
SELCAL: 
LPQS
MSN/LN: 
29579 / 190
Operator: 
Total Flights: 
14
Total Block Time: 
66 hrs
Total Flight Time: 
61.4 hrs
Total Fuel Used: 
904,109 lb
DATALINK LOG | Newest first | Current as of: 2022-09-30 03:46:20
LABEL SEQUENCE CONTENT Dn/Up
QD331101:30 18.3▼ Dn
QC195901:17▼ Dn
2U0241KORD 080051Z 18006KT 10SM FEW250 08/M02 A3032 RMK AO2 SLP272 T00831017▲ Up
2S0348KORD▼ Dn
UM2125148KORD ATIS - ORD ATIS INFO N 2351Z. 18009KT 10SM SCT250 09/M02 A3030 (THREE ZERO THREE ZERO). ARR EXP VECTORS ILS RWY 28C APCH, VISUAL APCH RWY 27C, VISUAL APCH RWY 27R. SIMUL APCHS IN USE. LAND AND HOLD SHORT OPERATIONS ARE IN EFFECT. RWY 27C ARR PLAN TO H/S OF TWY K K, 9 THSD 7 HND 25 FT AVBL, RWY 28C ARR PLAN TO H/S OF TWY Z, 9 THSD 6 HND TEN FT AVBL. READBACK ALL RWY HOLD SHORT INSTRUCTIONS. DEPS EXP RWYS 22L, 28R FROM NOVEMBER 5 9750 FT AVL. NOTAMS... RWY 4L, 22R CLSD, RWY 9R, 27L CLSD. RWY 27C ALS OTS. PILOTS USE CTN FOR BIRD ACTIVITY IN THE VICINITY OF THE ARPT. USE CAUTION FOR MEN AND EQUIP AT NUMEROUS SITES ON THE FIELD. CENTRAL DEICING FACILITY PROCEDURES IN EFFECT.. WHEN READY TO TAXI CONTACT GND METERING ON FREQ 121.67. ...ADVS YOU HAVE INFO N.▲ Up
DM795138 ATIS KORD A▼ Dn
GA4543GATE L4▲ Up
GR4533KORD 01:21 MAAS 00 YP/UM 01/02 WCHR/S/C 03/04/05 HI-VAL NO DIPL/VIP YES▼ Dn
2U4226KORD 072351Z 18009KT 10SM SCT250 09/M02 A3030 RMK AO2 SLP268 T00941022 10111 20072 56010▲ Up
2S4431KORD▼ Dn
QB322622:30▼ Dn
UM2121824KPHX ATIS - PHX ATIS INFO X 2151Z. VRB03KT 10SM FEW170 SCT200 BKN250 29/M02 A2993 (TWO NINER NINER THREE). SIMUL APCHS IN USE. EXPECT VISUAL APCH RWY 8, VISUAL APCH RWY 7R. DEPARTING RWY 7L. NOTAMS... RWY 7L PAPI OTS. MULT CRANES INVOF ARPT. BIRD ACTIVITY INVOF ARPT. READBACK HOLD SHORT INSTRUCTIONS. ...ADVS YOU HAVE INFO X.▲ Up
DM791813 ATIS KPHX D▼ Dn
QA181322:16 59▼ Dn
2U1545KPHX 072151Z VRB03KT 10SM FEW170 SCT200 BKN250 29/M02 A2993 RMK AO2 SLP121 T02941017 $▲ Up
2S1712KPHX▼ Dn
5U0305KORD 080202Z 18011KT 10SM FEW070 BKN250 11/M04 A3033▲ Up
2U0302KPHX 072051Z 13004KT 10SM FEW170 SCT200 BKN250 29/M01 A2995 RMK AO2 SLP127 T02891006 58019 $▲ Up
5S0502KORD▼ Dn
2S0502KPHX▼ Dn
A34149CLEARED TO KORD VIA FORPE1 ABQ FTI J18 SLN J96 IRK BENKY6. SQUAWK 1464.▲ Up
Q01215[LINK ACK]▲ Up
Q01215[LINK TEST]▼ Dn


AIRCRAFT HISTORY
FLIGHT DATE FLIGHT NO. ORIGIN DESTINATION CLEARED ROUTE BLOCK TIME FLIGHT TIME FUEL USED PILOT
2021-05-21AAL519KDFW KTPA KDFW TREXX JOLEN PAXTN HANUH LYING FORCK ELD MEI CABLO HEVVN LEGGT TABIR DIPAY DARBS FOOXX DADPE BAYZZ WOBKI LAGOO RW01L2.5 hrs2.2 hrs31,837 lbChemtrails
2021-03-21AAL79EGLL KDFW EGLL D132B D254K WODNB D101H CPT KENET UGNUS OKTAD DOBEM TOPRO MEDOG FOXLA ABAPO PEMOB LANPI BAKUR DOGAL 5520N 5630N 5640N 5550N LOMSI ANCER POLTY KENLU PEPLA DERLO WWSHR DUTSH KLYNE PXV PENBE HUMBO RUSLR LIT FEWWW PROWD LETHR ARMYY SEEVR BRDJE COVIE LEMYN PITHY STONZ ROCKZ JEKIL DAYZZ RW35C9.5 hrs9.2 hrs138,941 lbGeorge
2021-03-20AAL9716KPHX EGLL KPHX SPRKY GOALY POCCK MRBIL YOTES JARPA RSK PUB OBH KP78G KP87K SSM MT ROBBE EXPOS JANJO 5650N 5840N 5930N 5920N AGORI OSBOX MIMKU KELLY CASEL PENIL WAL EKLAD MOGTA NANTI NUGRA TOBID SOPIT WCONB BNN CI27L RW27L10.2 hrs9.8 hrs150,499 lbGeorge
2021-03-13AAL421PHNL KPHX PHNL MKK BLUSH SESXI ALICA EBBER ELOYI ERROT ETNIC ETECO EDSEL EDTOO ELKEY LAX PDZ YCDIL WBERG BLH SCOLE SPINK SNRRA SWOON HYDRR GEELA AGGLA CHAVO LEMOE JAGAL RW265.5 hrs5.1 hrs74,389 lbGeorge
2021-03-13AAL692KPHX PHNL KPHX FUTEP AZCRD USEYE MASVE OAKLI KEENS IZZZO CULTS HRRBR CURIV DECAS PSP LAX DINTY ADUMM CUNDU BILLO BEKME BOARD BITTA BOWSZ HISPO BAMBO IHNET INOYI DZURA OOKAH COZES RW08L6.3 hrs6 hrs86,048 lbGeorge
2021-03-10AAL453KORD KPHX KORD OLINN OREOS OBENE OGALE KP66E KAWWA KD57Y PUB KD45U GUP KIRKM SLIDR TINIZ PAYSO EAGUL HOMRR VNNOM ESDEE BASSL DERVL JAGAL RW263.4 hrs3.2 hrs46,004 lbGeorge
2021-03-07AAL575KPHX KORD KPHX SPRKY FORPE LALUZ SJN ABQ FTI KENTO DRAWL GCK SLN AGENT KIDER IRK LOAMY KEOKK DRAMS RYELY BFORD BYLAW BENKY NEWRK AHSTN PETAH JORJO MONKZ TONIE RRUDA RW10C3.2 hrs2.8 hrs40,748 lbGeorge
2021-03-07AAL548KORD KPHX KORD PEKUE PIPPN ELYNA BACNN STJ SLN GCK CIM ZUN DOJOE SLIDR TINIZ PAYSO EAGUL HOMRR BOHTX GEENO QUENY HINEY OBASE JAMIL RW083.4 hrs3.1 hrs42,981 lbGeorge
2021-02-23AAL2343KLAX KORD KLAX HIIPR KLIPR KEGGS COOPP ORCKA NNAVY BLAZN LAS BAWER LARVE EKR KD66U BFF ONL FOD MYRRS SAAYY BENNR JBAGS BHAWK STNLE CUUPP CHMPN CLSBY FYTTE MOTRR COGSS MADII SOOLU JORJO MONKZ TONIE HAZIL RW28C3.8 hrs3.3 hrs47,295 lbGeorge
2021-02-18AAL1163KORD KLAX KORD MYKIE MONNY JORDY OBH HCT FQF HBU LRAIN TBC JASSE AREAF ESGEE DNERO SLLRS FLOJO SALYY GLESN ANJLL CAANN BOYEL CRCUS RW25L3.8 hrs3.6 hrs52,895 lbDan Downs
2021-02-14AAL1159KMIA KORD KMIA SENOY CIMBA FORKK VVMAX HEDLY STYMY ZERBO DUCEN OVENP FEMON VIYAP OLBEC ISUZO GURGE FISHO QUIWE BENBY DOOGE HAPKI TONIO OCASE HEVAN BONNT FRIDG WATSN HAUPO MKITA PRISE HULLS STYLE DWEEB CENAK HAZIL RW28C2.7 hrs2.3 hrs35,738 lbGeorge
2021-02-14AAL1635KORD KMIA KORD CMSKY CARYN CYBIL PXV BNA LGC GOONS BULZI SNAPY NICKI BITNY ENDEW JUULI BAARY CYY DEEDS SSCOT RUBOE WALIP LECIT COPRA RW08R3 hrs2.6 hrs38,525 lbGeorge
2021-02-13AAL615KPHX KORD KPHX WIVLA HIRVU ZIDOG OXYGN ZILUB FORPE LALUZ SJN ABQ FTI KENTO DRAWL GCK SLN AGENT KIDER IRK LOAMY KEOKK BDF BENKY NEWRK HAZIL RW28C3 hrs2.7 hrs37,956 lbGeorge
2021-02-13AAL693PHNL KPHX PHNL MKK BLUSH SESXI ALICA EBBER ELOYI ERROT ETNIC ETECO EDSEL EDTOO ELKEY SXC BLH SCOLE SPINK SNRRA SWOON HYDRR GEELA PUNNT TEICH TESLE FALGO CAGOR JAMIL RW085.8 hrs5.5 hrs80,251 lbGeorge